createdAt,value
2022-10-19T00:01:03.844Z,6.25
2022-10-19T00:03:31.132Z,6.01
2022-10-19T00:05:58.052Z,5.75
2022-10-19T00:08:24.702Z,5.09
2022-10-19T00:10:51.390Z,5.42
2022-10-19T00:13:18.024Z,5.51
2022-10-19T00:15:45.314Z,5.69
2022-10-19T00:18:12.005Z,5.62
2022-10-19T00:20:38.623Z,5.59
2022-10-19T00:23:05.216Z,5.09
2022-10-19T00:25:32.051Z,5.52
2022-10-19T00:27:58.613Z,5.59
2022-10-19T00:30:25.370Z,5.00
2022-10-19T00:32:51.915Z,5.71
2022-10-19T00:35:18.439Z,4.98
2022-10-19T00:37:45.086Z,5.25
2022-10-19T00:40:11.873Z,5.26
2022-10-19T00:42:38.446Z,5.49
2022-10-19T00:45:14.861Z,5.70
2022-10-19T00:47:43.401Z,5.74
2022-10-19T00:50:12.602Z,5.74
2022-10-19T00:52:39.196Z,5.46
2022-10-19T00:55:07.670Z,5.79
2022-10-19T00:57:35.070Z,5.51
2022-10-19T01:00:05.166Z,5.66
2022-10-19T01:02:32.165Z,5.34
2022-10-19T01:04:59.604Z,5.14
2022-10-19T01:07:26.919Z,5.69
2022-10-19T01:09:54.389Z,5.39
2022-10-19T01:12:46.039Z,5.81
2022-10-19T01:15:22.556Z,5.77
2022-10-19T01:18:22.339Z,5.76
2022-10-19T01:20:48.867Z,5.68
2022-10-19T01:23:31.252Z,5.62
2022-10-19T01:26:16.341Z,5.60
2022-10-19T01:28:51.418Z,5.54
2022-10-19T01:31:40.869Z,5.46
2022-10-19T01:34:34.541Z,5.58
2022-10-19T01:37:01.079Z,5.53
2022-10-19T01:40:03.597Z,5.48
2022-10-19T01:45:32.285Z,3.90
2022-10-19T01:48:05.596Z,5.31
2022-10-19T01:50:41.071Z,5.46
2022-10-19T01:53:10.474Z,5.41
2022-10-19T01:55:42.778Z,5.04
2022-10-19T01:58:13.657Z,5.35
2022-10-19T02:00:45.225Z,4.93
2022-10-19T02:03:13.243Z,4.68
2022-10-19T02:05:41.933Z,4.99
2022-10-19T02:08:14.816Z,5.08
2022-10-19T02:10:43.649Z,5.00
2022-10-19T02:13:13.766Z,4.43
2022-10-19T02:15:44.041Z,4.79
2022-10-19T02:18:15.373Z,4.65
2022-10-19T02:20:42.252Z,4.60
2022-10-19T02:23:09.661Z,3.16
2022-10-19T02:25:36.895Z,4.85
2022-10-19T02:28:04.815Z,4.79
2022-10-19T02:30:31.588Z,4.59
2022-10-19T02:32:58.132Z,4.88
2022-10-19T02:35:24.745Z,4.83
2022-10-19T02:37:51.667Z,4.74
2022-10-19T02:40:18.543Z,4.82
2022-10-19T02:42:51.156Z,4.81
2022-10-19T02:45:23.793Z,4.94
2022-10-19T02:47:58.323Z,4.60
2022-10-19T02:50:25.241Z,2.25
2022-10-19T02:52:51.836Z,4.82
2022-10-19T02:55:18.647Z,5.06
2022-10-19T02:57:45.465Z,4.71
2022-10-19T03:00:12.353Z,4.93
2022-10-19T03:02:39.038Z,4.42
2022-10-19T03:05:06.016Z,4.75
2022-10-19T03:07:32.858Z,4.49
2022-10-19T03:09:59.821Z,4.20
2022-10-19T03:12:26.348Z,4.60
2022-10-19T03:14:52.987Z,4.50
2022-10-19T03:17:19.753Z,3.46
2022-10-19T03:19:46.420Z,3.02
2022-10-19T03:22:14.569Z,3.08
2022-10-19T03:24:41.339Z,3.48
2022-10-19T03:27:07.884Z,3.30
2022-10-19T03:29:34.469Z,2.05
2022-10-19T03:32:01.038Z,3.43
2022-10-19T03:34:27.573Z,3.49
2022-10-19T03:36:54.309Z,2.45
2022-10-19T03:39:20.880Z,3.54
2022-10-19T03:41:47.449Z,3.59
2022-10-19T03:44:14.074Z,3.76
2022-10-19T03:46:40.866Z,3.89
2022-10-19T03:49:08.220Z,4.00
2022-10-19T03:51:35.824Z,4.03
2022-10-19T03:54:05.775Z,4.09
2022-10-19T03:56:35.080Z,4.16
2022-10-19T03:59:03.534Z,4.22
2022-10-19T04:01:39.189Z,4.26
2022-10-19T04:04:16.982Z,4.18
2022-10-19T04:06:45.437Z,4.43
2022-10-19T04:09:15.625Z,4.47
2022-10-19T04:11:42.812Z,4.26
2022-10-19T04:14:18.941Z,4.25
2022-10-19T04:16:53.713Z,4.22
2022-10-19T04:19:20.307Z,3.42
2022-10-19T04:21:49.053Z,4.07
2022-10-19T04:24:18.668Z,3.29
2022-10-19T04:26:50.891Z,3.88
2022-10-19T04:29:19.245Z,3.77
2022-10-19T04:31:46.278Z,3.84
2022-10-19T04:34:12.833Z,3.72
2022-10-19T04:36:39.604Z,3.10
2022-10-19T04:39:07.149Z,3.54
2022-10-19T04:41:34.387Z,2.36
2022-10-19T04:44:03.416Z,3.62
2022-10-19T04:46:30.734Z,3.11
2022-10-19T04:48:57.904Z,3.43
2022-10-19T04:51:25.493Z,3.37
2022-10-19T04:53:55.592Z,3.58
2022-10-19T04:56:29.283Z,3.57
2022-10-19T04:59:00.096Z,3.71
2022-10-19T05:01:28.597Z,3.77
2022-10-19T05:06:24.219Z,3.96
2022-10-19T05:08:51.169Z,4.06
2022-10-19T05:11:18.959Z,4.07
2022-10-19T05:13:46.240Z,4.36
2022-10-19T05:16:19.532Z,4.00
2022-10-19T05:18:59.662Z,4.72
2022-10-19T05:21:28.870Z,4.41
2022-10-19T05:23:56.813Z,4.65
2022-10-19T05:26:26.277Z,5.19
2022-10-19T05:28:59.447Z,4.97
2022-10-19T05:31:27.255Z,5.48
2022-10-19T05:33:54.094Z,5.54
2022-10-19T05:36:20.777Z,5.64
2022-10-19T05:38:49.811Z,5.71
2022-10-19T05:41:17.367Z,5.90
2022-10-19T05:43:45.905Z,6.04
2022-10-19T05:46:17.546Z,6.01
2022-10-19T05:48:45.085Z,6.40
2022-10-19T05:51:15.061Z,6.49
2022-10-19T05:53:42.113Z,6.70
2022-10-19T05:56:12.571Z,6.31
2022-10-19T05:58:39.221Z,6.44
2022-10-19T06:01:06.086Z,6.77
2022-10-19T06:03:32.727Z,6.77
2022-10-19T06:06:06.036Z,7.65
2022-10-19T06:08:33.043Z,7.85
2022-10-19T06:11:14.202Z,8.02
2022-10-19T06:13:42.466Z,8.11
2022-10-19T06:16:10.988Z,8.26
2022-10-19T06:18:38.118Z,8.60
2022-10-19T06:21:07.385Z,8.58
2022-10-19T06:23:35.546Z,9.01
2022-10-19T06:26:03.871Z,9.17
2022-10-19T06:28:30.521Z,9.35
2022-10-19T06:31:00.548Z,9.38
2022-10-19T06:33:28.522Z,9.72
2022-10-19T06:35:55.068Z,9.38
2022-10-19T06:38:22.056Z,10.00
2022-10-19T06:40:49.256Z,10.49
2022-10-19T06:43:16.265Z,10.09
2022-10-19T06:45:42.841Z,9.90
2022-10-19T06:48:09.483Z,9.67
2022-10-19T06:50:36.099Z,9.59
2022-10-19T06:53:02.756Z,7.77
2022-10-19T06:55:29.470Z,9.78
2022-10-19T06:57:56.070Z,10.09
2022-10-19T07:00:22.670Z,10.48
2022-10-19T07:02:49.227Z,10.81
2022-10-19T07:05:16.054Z,10.99
2022-10-19T07:07:42.633Z,11.14
2022-10-19T07:10:09.450Z,10.76
2022-10-19T07:12:36.068Z,11.31
2022-10-19T07:15:02.969Z,11.54
2022-10-19T07:17:29.647Z,11.35
2022-10-19T07:19:56.313Z,12.19
2022-10-19T07:22:27.830Z,11.70
2022-10-19T07:24:54.834Z,12.76
2022-10-19T07:27:21.441Z,12.28
2022-10-19T07:29:48.029Z,13.09
2022-10-19T07:32:14.623Z,12.16
2022-10-19T07:34:41.272Z,12.77
2022-10-19T07:37:07.848Z,11.80
2022-10-19T07:39:34.444Z,13.08
2022-10-19T07:42:01.069Z,13.33
2022-10-19T07:44:27.968Z,13.50
2022-10-19T07:46:54.622Z,13.41
2022-10-19T07:49:21.827Z,13.07
2022-10-19T07:51:48.937Z,13.71
2022-10-19T07:54:15.536Z,14.12
2022-10-19T07:56:42.113Z,14.37
2022-10-19T07:59:10.331Z,14.22
2022-10-19T08:01:41.620Z,14.70
2022-10-19T08:06:55.189Z,15.26
2022-10-19T08:09:51.634Z,14.98
2022-10-19T08:12:12.470Z,14.83
2022-10-19T08:14:41.776Z,14.67
2022-10-19T08:17:11.586Z,15.47
2022-10-19T08:19:43.353Z,15.18
2022-10-19T08:22:10.732Z,15.58
2022-10-19T08:24:37.552Z,16.28
2022-10-19T08:27:04.409Z,16.32
2022-10-19T08:29:31.738Z,16.57
2022-10-19T08:31:58.734Z,16.69
2022-10-19T08:34:25.501Z,17.03
2022-10-19T08:36:52.208Z,17.22
2022-10-19T08:39:18.809Z,17.41
2022-10-19T08:42:13.367Z,17.58
2022-10-19T08:44:52.187Z,17.55
2022-10-19T08:47:50.109Z,17.85
2022-10-19T08:50:20.227Z,17.90
2022-10-19T08:52:54.187Z,17.99
2022-10-19T08:55:29.303Z,17.72
2022-10-19T08:58:14.256Z,18.09
2022-10-19T09:00:49.405Z,18.17
2022-10-19T09:03:37.544Z,17.81
2022-10-19T09:06:44.637Z,18.50
2022-10-19T09:09:14.033Z,18.70
2022-10-19T09:11:47.393Z,18.84
2022-10-19T09:14:36.502Z,18.98
2022-10-19T09:17:11.400Z,19.03
2022-10-19T09:19:37.988Z,18.80
2022-10-19T09:22:29.607Z,19.24
2022-10-19T09:25:05.797Z,19.51
2022-10-19T09:27:39.741Z,19.21
2022-10-19T09:30:28.049Z,19.01
2022-10-19T09:33:06.267Z,19.40
2022-10-19T09:35:38.967Z,19.60
2022-10-19T09:38:07.412Z,19.72
2022-10-19T09:40:35.510Z,19.82
2022-10-19T09:43:19.256Z,19.62
2022-10-19T09:45:52.055Z,19.80
2022-10-19T09:48:53.887Z,19.79
2022-10-19T09:51:21.336Z,19.65
2022-10-19T09:53:52.016Z,19.93
2022-10-19T09:56:28.312Z,20.20
2022-10-19T09:58:57.839Z,20.67
2022-10-19T10:01:41.822Z,20.88
2022-10-19T10:04:15.261Z,20.82
2022-10-19T10:06:44.395Z,20.95
2022-10-19T10:09:19.856Z,21.08
2022-10-19T10:11:49.637Z,21.17
2022-10-19T10:14:36.517Z,21.21
2022-10-19T10:17:06.914Z,21.40
2022-10-19T10:19:36.291Z,21.54
2022-10-19T10:22:04.294Z,21.56
2022-10-19T10:24:33.534Z,21.63
2022-10-19T10:27:02.767Z,21.41
2022-10-19T10:29:37.724Z,21.56
2022-10-19T10:32:19.462Z,21.47
2022-10-19T10:35:07.684Z,20.96
2022-10-19T10:37:47.304Z,21.85
2022-10-19T10:40:32.462Z,21.82
2022-10-19T10:43:06.260Z,21.90
2022-10-19T10:45:38.951Z,21.99
2022-10-19T10:48:24.058Z,22.35
2022-10-19T10:50:52.208Z,21.17
2022-10-19T10:53:43.446Z,22.02
2022-10-19T10:56:33.427Z,22.04
2022-10-19T10:59:26.588Z,22.29
2022-10-19T11:01:59.250Z,22.54
2022-10-19T11:04:32.419Z,22.48
2022-10-19T11:07:07.509Z,22.15
2022-10-19T11:09:38.421Z,22.59
2022-10-19T11:12:12.453Z,23.00
2022-10-19T11:14:57.962Z,22.41
2022-10-19T11:17:36.852Z,21.76
2022-10-19T11:20:08.249Z,22.64
2022-10-19T11:22:49.062Z,22.53
2022-10-19T11:25:15.653Z,22.60
2022-10-19T11:28:07.021Z,22.89
2022-10-19T11:30:56.507Z,22.62
2022-10-19T11:33:40.956Z,22.82
2022-10-19T11:36:19.585Z,23.03
2022-10-19T11:39:09.849Z,22.87
2022-10-19T11:41:50.210Z,22.69
2022-10-19T11:44:37.053Z,23.21
2022-10-19T11:47:15.762Z,22.95
2022-10-19T11:49:59.558Z,22.94
2022-10-19T11:52:34.722Z,22.75
2022-10-19T11:55:13.322Z,23.02
2022-10-19T11:57:56.512Z,22.31
2022-10-19T12:00:39.796Z,22.52
2022-10-19T12:03:29.302Z,22.13
2022-10-19T12:06:30.798Z,21.66
2022-10-19T12:09:21.034Z,21.84
2022-10-19T12:12:19.720Z,21.83
2022-10-19T12:14:51.483Z,22.54
2022-10-19T12:17:27.480Z,22.23
2022-10-19T12:19:58.949Z,22.90
2022-10-19T12:22:29.978Z,23.00
2022-10-19T12:25:00.383Z,23.11
2022-10-19T12:27:35.093Z,22.63
2022-10-19T12:30:09.066Z,22.42
2022-10-19T12:32:54.305Z,22.53
2022-10-19T12:35:58.469Z,22.72
2022-10-19T12:39:02.581Z,22.81
2022-10-19T12:42:24.816Z,22.63
2022-10-19T12:45:10.598Z,22.89
2022-10-19T12:47:37.516Z,22.86
2022-10-19T12:50:05.566Z,22.63
2022-10-19T12:52:52.347Z,22.71
2022-10-19T12:55:24.874Z,23.01
2022-10-19T12:58:06.293Z,22.94
2022-10-19T13:00:37.690Z,23.03
2022-10-19T13:03:25.140Z,23.07
2022-10-19T13:06:07.529Z,22.29
2022-10-19T13:08:43.338Z,23.00
2022-10-19T13:11:15.478Z,22.76
2022-10-19T13:14:04.191Z,23.08
2022-10-19T13:16:36.733Z,23.04
2022-10-19T13:19:18.422Z,23.08
2022-10-19T13:21:59.683Z,23.07
2022-10-19T13:24:26.205Z,23.04
2022-10-19T13:27:05.102Z,22.93
2022-10-19T13:29:40.614Z,22.87
2022-10-19T13:32:37.879Z,21.01
2022-10-19T13:35:34.378Z,22.68
2022-10-19T13:38:12.971Z,22.56
2022-10-19T13:41:05.053Z,22.43
2022-10-19T13:43:50.648Z,22.06
2022-10-19T13:46:34.337Z,22.27
2022-10-19T13:49:09.641Z,22.13
2022-10-19T13:51:41.599Z,22.08
2022-10-19T13:54:33.015Z,22.02
2022-10-19T13:57:11.439Z,21.86
2022-10-19T14:00:09.464Z,21.75
2022-10-19T14:02:54.307Z,21.65
2022-10-19T14:05:47.458Z,21.44
2022-10-19T14:08:29.233Z,21.47
2022-10-19T14:11:01.339Z,21.37
2022-10-19T14:13:28.946Z,21.36
2022-10-19T14:15:57.354Z,21.28
2022-10-19T14:18:36.506Z,21.22
2022-10-19T14:21:08.094Z,20.46
2022-10-19T14:23:38.101Z,21.01
2022-10-19T14:26:18.776Z,20.99
2022-10-19T14:28:45.673Z,20.48
2022-10-19T14:31:21.695Z,20.83
2022-10-19T14:33:52.149Z,20.86
2022-10-19T14:36:21.284Z,20.68
2022-10-19T14:38:50.238Z,20.36
2022-10-19T14:41:28.708Z,20.54
2022-10-19T14:43:56.727Z,20.55
2022-10-19T14:46:34.211Z,20.41
2022-10-19T14:49:03.878Z,20.31
2022-10-19T14:51:41.602Z,20.22
2022-10-19T14:54:15.991Z,20.10
2022-10-19T14:56:51.069Z,19.93
2022-10-19T14:59:22.433Z,19.79
2022-10-19T15:01:55.599Z,19.39
2022-10-19T15:04:26.610Z,19.56
2022-10-19T15:06:54.446Z,19.40
2022-10-19T15:09:47.395Z,18.67
2022-10-19T15:12:18.323Z,19.12
2022-10-19T15:14:46.113Z,18.94
2022-10-19T15:17:49.803Z,18.81
2022-10-19T15:20:30.207Z,18.61
2022-10-19T15:22:58.645Z,18.38
2022-10-19T15:25:37.181Z,18.24
2022-10-19T15:28:21.948Z,17.06
2022-10-19T15:30:59.690Z,18.03
2022-10-19T15:33:26.838Z,17.61
2022-10-19T15:36:06.922Z,17.71
2022-10-19T15:38:34.842Z,17.39
2022-10-19T15:41:04.006Z,17.51
2022-10-19T15:43:30.594Z,17.42
2022-10-19T15:46:06.642Z,17.34
2022-10-19T15:48:42.027Z,17.26
2022-10-19T15:51:33.068Z,17.03
2022-10-19T15:54:05.336Z,16.82
2022-10-19T15:56:35.165Z,16.83
2022-10-19T15:59:05.754Z,16.74
2022-10-19T16:01:33.362Z,16.72
2022-10-19T16:04:00.690Z,16.58
2022-10-19T16:06:30.483Z,16.19
2022-10-19T16:08:58.661Z,16.26
2022-10-19T16:11:26.036Z,15.66
2022-10-19T16:13:52.917Z,15.38
2022-10-19T16:16:23.837Z,15.91
2022-10-19T16:18:50.600Z,15.71
2022-10-19T16:21:18.590Z,15.53
2022-10-19T16:23:45.883Z,15.47
2022-10-19T16:26:16.914Z,15.43
2022-10-19T16:28:55.677Z,15.32
2022-10-19T16:31:23.267Z,14.93
2022-10-19T16:33:49.944Z,15.04
2022-10-19T16:36:20.199Z,14.37
2022-10-19T16:38:47.471Z,14.85
2022-10-19T16:41:14.715Z,14.79
2022-10-19T16:43:41.286Z,14.39
2022-10-19T16:46:08.563Z,14.58
2022-10-19T16:48:35.415Z,14.63
2022-10-19T16:51:07.940Z,14.48
2022-10-19T16:53:35.287Z,14.51
2022-10-19T16:56:11.078Z,14.23
2022-10-19T16:58:38.989Z,14.39
2022-10-19T17:18:44.712Z,14.41
2022-10-19T17:21:22.390Z,14.06
2022-10-19T17:23:52.848Z,13.76
2022-10-19T17:26:19.963Z,13.29
2022-10-19T17:28:46.667Z,13.51
2022-10-19T17:31:14.105Z,13.38
2022-10-19T17:33:41.560Z,13.12
2022-10-19T17:36:18.953Z,12.93
2022-10-19T17:38:46.353Z,13.06
2022-10-19T17:41:15.726Z,13.02
2022-10-19T17:43:43.878Z,12.71
2022-10-19T17:46:12.470Z,12.79
2022-10-19T17:48:40.946Z,12.71
2022-10-19T17:51:11.383Z,12.50
2022-10-19T17:53:38.500Z,12.30
2022-10-19T17:56:07.837Z,12.37
2022-10-19T17:58:39.045Z,12.30
2022-10-19T18:01:09.490Z,12.11
2022-10-19T18:03:37.703Z,12.10
2022-10-19T18:06:10.889Z,12.00
2022-10-19T18:08:39.242Z,11.97
2022-10-19T18:11:12.217Z,11.75
2022-10-19T18:13:39.852Z,11.77
2022-10-19T18:16:10.627Z,11.75
2022-10-19T18:18:40.381Z,11.72
2022-10-19T18:21:12.568Z,11.41
2022-10-19T18:23:40.038Z,11.59
2022-10-19T18:26:13.537Z,11.33
2022-10-19T18:28:40.515Z,11.62
2022-10-19T18:31:15.418Z,11.58
2022-10-19T18:33:42.571Z,11.27
2022-10-19T18:36:10.882Z,11.40
2022-10-19T18:38:38.512Z,11.50
2022-10-19T18:43:41.467Z,11.04
2022-10-19T18:46:09.204Z,11.20
2022-10-19T18:48:37.786Z,10.52
2022-10-19T18:51:07.383Z,11.11
2022-10-19T18:53:35.205Z,11.03
2022-10-19T18:56:07.444Z,11.20
2022-10-19T18:58:35.297Z,11.15
2022-10-19T19:01:17.059Z,11.07
2022-10-19T19:03:46.481Z,11.00
2022-10-19T19:06:22.154Z,10.91
2022-10-19T19:08:48.874Z,10.70
2022-10-19T19:11:20.982Z,10.78
2022-10-19T19:13:53.601Z,10.34
2022-10-19T19:16:21.060Z,10.84
2022-10-19T19:18:47.738Z,10.40
2022-10-19T19:21:18.531Z,10.71
2022-10-19T19:23:46.144Z,10.71
2022-10-19T19:26:14.181Z,10.64
2022-10-19T19:28:42.870Z,10.49
2022-10-19T19:31:12.851Z,9.99
2022-10-19T19:33:39.394Z,10.20
2022-10-19T19:36:07.698Z,10.50
2022-10-19T19:38:35.582Z,10.40
2022-10-19T19:41:07.817Z,10.38
2022-10-19T19:43:37.108Z,10.42
2022-10-19T19:46:08.971Z,10.43
2022-10-19T19:48:37.222Z,10.16
2022-10-19T19:51:04.046Z,9.88
2022-10-19T19:53:31.319Z,10.12
2022-10-19T19:55:57.906Z,9.87
2022-10-19T19:58:24.531Z,10.05
2022-10-19T20:00:51.123Z,9.71
2022-10-19T20:03:17.684Z,9.60
2022-10-19T20:05:44.508Z,9.84
2022-10-19T20:08:11.409Z,9.70
2022-10-19T20:10:39.416Z,9.67
2022-10-19T20:13:06.101Z,9.70
2022-10-19T20:15:32.670Z,9.32
2022-10-19T20:17:59.302Z,9.23
2022-10-19T20:20:25.870Z,9.32
2022-10-19T20:22:52.438Z,8.72
2022-10-19T20:25:19.151Z,9.22
2022-10-19T20:27:45.747Z,9.47
2022-10-19T20:30:12.358Z,8.96
2022-10-19T20:32:39.127Z,8.55
2022-10-19T20:35:07.491Z,9.08
2022-10-19T20:37:34.381Z,9.36
2022-10-19T20:40:03.387Z,8.44
2022-10-19T20:42:34.252Z,9.14
2022-10-19T20:45:00.999Z,8.83
2022-10-19T20:47:27.732Z,8.59
2022-10-19T20:49:54.309Z,9.03
2022-10-19T20:52:20.891Z,8.36
2022-10-19T20:54:48.705Z,9.06
2022-10-19T20:57:15.342Z,8.84
2022-10-19T20:59:43.858Z,8.76
2022-10-19T21:02:11.543Z,8.95
2022-10-19T21:04:38.212Z,8.76
2022-10-19T21:07:05.149Z,9.07
2022-10-19T21:09:32.095Z,9.04
2022-10-19T21:12:01.170Z,8.99
2022-10-19T21:14:29.575Z,8.33
2022-10-19T21:17:00.381Z,8.94
2022-10-19T21:19:28.871Z,8.61
2022-10-19T21:22:01.613Z,8.00
2022-10-19T21:24:32.533Z,7.66
2022-10-19T21:27:09.005Z,8.49
2022-10-19T21:29:36.771Z,8.48
2022-10-19T21:32:03.994Z,8.78
2022-10-19T21:34:31.803Z,8.54
2022-10-19T21:36:58.965Z,8.78
2022-10-19T21:39:25.563Z,8.61
2022-10-19T21:41:52.319Z,8.96
2022-10-19T21:44:19.404Z,8.88
2022-10-19T21:46:47.928Z,8.75
2022-10-19T21:49:15.273Z,8.69
2022-10-19T21:51:53.850Z,8.47
2022-10-19T21:54:24.782Z,7.93
2022-10-19T21:56:51.649Z,8.83
2022-10-19T21:59:18.382Z,8.75
2022-10-19T22:01:45.094Z,8.03
2022-10-19T22:04:17.335Z,8.59
2022-10-19T22:06:44.573Z,8.49
2022-10-19T22:09:15.211Z,8.41
2022-10-19T22:11:41.935Z,8.62
2022-10-19T22:14:10.137Z,8.69
2022-10-19T22:16:36.991Z,8.75
2022-10-19T22:19:05.576Z,8.72
2022-10-19T22:21:33.800Z,7.91
2022-10-19T22:24:03.686Z,8.58
2022-10-19T22:26:36.762Z,7.94
2022-10-19T22:29:05.031Z,8.36
2022-10-19T22:31:32.902Z,8.42
2022-10-19T22:34:05.534Z,7.97
2022-10-19T22:36:32.331Z,8.38
2022-10-19T22:38:58.952Z,8.32
2022-10-19T22:41:25.607Z,8.17
2022-10-19T22:43:52.234Z,8.33
2022-10-19T22:46:18.841Z,8.51
2022-10-19T22:48:45.489Z,7.92
2022-10-19T22:51:12.165Z,7.34
2022-10-19T22:53:38.747Z,8.01
2022-10-19T22:56:05.790Z,8.12
2022-10-19T22:58:32.428Z,8.07
2022-10-19T23:01:03.452Z,7.92
2022-10-19T23:03:30.139Z,7.16
2022-10-19T23:05:56.923Z,7.80
2022-10-19T23:08:23.997Z,7.50
2022-10-19T23:10:50.567Z,7.84
2022-10-19T23:13:17.953Z,7.59
2022-10-19T23:15:45.048Z,8.04
2022-10-19T23:18:12.121Z,7.29
2022-10-19T23:20:38.726Z,8.16
2022-10-19T23:23:05.478Z,8.17
2022-10-19T23:28:03.553Z,7.84
2022-10-19T23:30:30.134Z,8.25
2022-10-19T23:32:56.762Z,8.06
2022-10-19T23:35:23.383Z,8.16
2022-10-19T23:37:49.970Z,8.20
2022-10-19T23:40:16.643Z,7.89
2022-10-19T23:42:43.170Z,7.54
2022-10-19T23:45:10.309Z,8.52
2022-10-19T23:47:37.184Z,7.87
2022-10-19T23:50:04.366Z,7.83
2022-10-19T23:52:30.922Z,7.65
2022-10-19T23:54:57.577Z,8.51
2022-10-19T23:57:24.134Z,8.38
2022-10-19T23:59:50.838Z,8.23
